Airfield :
LOGIN :

Register | Disclaimer

   EN    FR    IT 

 










Legend :    VFR   Marginal VFR   IFR   Intensive IFR   Very Intensive IFR
Visi :
Ceiling :
>= 8 km
>= 3000ft
5 to 8 km
1000 to 3000 ft
1500m to 5 km
500 to 1000 ft
800 to 1500m
200 to 500 ft
< 800m
< 200 ft
Symbols :   Thunderstorms  Fog  Heavy snow  Heavy precipitations  Wind > 20 kt
SIGMETs :     Misc.  Thunderstorms  Icing  Turbulence  Mountain Waves  Volcanic Ashes







- Airport Elevation : 614 ft
- IATA code : CRL


EBCI - Charleroi

CURRENT METAR :
  • 191250Z 24013KT 9999 FEW012 BKN016 04/01 Q1010 NOSIG

EXPIRED METARs :
  • 191220Z 23010KT 9999 FEW012 BKN016 04/02 Q1010 NOSIG
  • 191150Z 23011KT 9999 FEW011 SCT015 04/01 Q1010 NOSIG
  • 191120Z 22011KT 9999 FEW011 BKN015 03/01 Q1010 NOSIG
  • 191050Z 23011KT 9999 SCT012 04/01 Q1010 NOSIG
  • 191020Z 23010KT 9999 SCT010 03/01 Q1010 NOSIG

TAF TAF EBCI
Valid from the 19 at 12:00 until the 20 at 18:00 UTC


191120Z 1912/2018 24010KT 9999 FEW018
PROB30
TEMPO 1916/1922 SHSNRA BKN014TCU
PROB30
TEMPO 2000/2007 BKN006
BECMG 2006/2008 BKN010
BECMG 2007/2009 17007KT
TEMPO 2009/2018 1800 SNRA RASG BKN002
No reported NOTAMs for that airfield.



MET'MAP, your aeronautical weather chart ! - Copyright ORBIFLY December 2007 - Disclaimer

ORBIFLY MET'MAP TEAM :

Programming & Development : Alexandra Zaïnal
Concept & Development : Baudouin d'Aumeries
Co-Development & Prog : Marc-Olivier Méhu
Technical & hardware support : Manuel Goepfert

Contact : metmap@orbifly.com




SOURCES & CREDITS :

   NOAA